createdAt,value
2023-05-08T00:00:14.401Z,15.80
2023-05-08T00:03:00.637Z,15.27
2023-05-08T00:05:46.268Z,16.60
2023-05-08T00:08:32.283Z,15.00
2023-05-08T00:11:17.553Z,17.60
2023-05-08T00:14:02.600Z,15.45
2023-05-08T00:16:47.889Z,15.27
2023-05-08T00:19:33.265Z,15.70
2023-05-08T00:22:19.196Z,15.88
2023-05-08T00:25:04.957Z,15.90
2023-05-08T00:27:50.190Z,14.48
2023-05-08T00:30:35.637Z,15.25
2023-05-08T00:33:21.240Z,16.02
2023-05-08T00:36:06.927Z,15.18
2023-05-08T00:38:51.766Z,16.55
2023-05-08T00:41:37.265Z,15.68
2023-05-08T00:44:22.453Z,16.08
2023-05-08T00:47:08.535Z,16.70
2023-05-08T00:49:53.921Z,15.50
2023-05-08T00:52:39.547Z,14.85
2023-05-08T00:55:24.904Z,16.30
2023-05-08T00:58:10.797Z,14.65
2023-05-08T01:00:57.084Z,15.82
2023-05-08T01:03:43.299Z,17.20
2023-05-08T01:06:28.502Z,16.48
2023-05-08T01:09:13.843Z,15.45
2023-05-08T01:12:10.427Z,17.50
2023-05-08T01:14:55.568Z,16.95
2023-05-08T01:18:02.708Z,14.05
2023-05-08T01:21:00.301Z,15.73
2023-05-08T01:24:27.263Z,17.00
2023-05-08T01:27:23.281Z,16.35
2023-05-08T01:30:36.430Z,16.25
2023-05-08T01:33:32.423Z,15.18
2023-05-08T01:36:25.317Z,16.30
2023-05-08T01:39:20.201Z,15.38
2023-05-08T01:42:18.282Z,15.20
2023-05-08T01:45:11.037Z,15.02
2023-05-08T01:48:09.070Z,14.63
2023-05-08T01:51:01.825Z,16.40
2023-05-08T01:53:55.768Z,15.88
2023-05-08T01:56:44.483Z,15.13
2023-05-08T01:59:33.673Z,15.15
2023-05-08T02:02:19.340Z,18.65
2023-05-08T02:05:07.393Z,17.08
2023-05-08T02:07:53.985Z,15.00
2023-05-08T02:10:40.704Z,15.48
2023-05-08T02:13:27.355Z,16.70
2023-05-08T02:16:14.455Z,17.23
2023-05-08T02:19:01.702Z,17.35
2023-05-08T02:21:48.351Z,18.20
2023-05-08T02:24:35.509Z,16.50
2023-05-08T02:27:27.184Z,15.77
2023-05-08T02:30:15.438Z,18.95
2023-05-08T02:33:01.406Z,17.92
2023-05-08T02:35:49.335Z,17.55
2023-05-08T02:38:37.221Z,18.83
2023-05-08T02:41:24.274Z,18.52
2023-05-08T02:44:09.777Z,20.13
2023-05-08T02:47:10.483Z,18.67
2023-05-08T02:50:28.422Z,18.90
2023-05-08T02:53:24.614Z,20.48
2023-05-08T02:56:30.839Z,19.75
2023-05-08T02:59:24.655Z,19.70
2023-05-08T03:02:14.108Z,18.60
2023-05-08T03:05:06.486Z,19.20
2023-05-08T03:07:56.517Z,19.35
2023-05-08T03:10:45.106Z,20.13
2023-05-08T03:13:34.372Z,18.88
2023-05-08T03:16:23.251Z,20.30
2023-05-08T03:19:24.150Z,20.90
2023-05-08T03:22:11.402Z,18.48
2023-05-08T03:25:00.611Z,20.63
2023-05-08T03:27:47.846Z,18.33
2023-05-08T03:30:36.733Z,18.77
2023-05-08T03:33:23.319Z,19.40
2023-05-08T03:36:11.536Z,21.42
2023-05-08T03:38:57.411Z,19.23
2023-05-08T03:41:44.945Z,21.88
2023-05-08T03:44:30.853Z,21.40
2023-05-08T03:47:17.970Z,21.00
2023-05-08T03:50:03.753Z,21.40
2023-05-08T03:52:48.766Z,21.13
2023-05-08T03:55:37.014Z,22.40
2023-05-08T03:58:38.396Z,20.40
2023-05-08T04:01:40.580Z,21.40
2023-05-08T04:04:39.978Z,20.48
2023-05-08T04:07:31.051Z,21.10
2023-05-08T04:10:24.530Z,23.00
2023-05-08T04:13:15.967Z,20.60
2023-05-08T04:16:09.587Z,21.55
2023-05-08T04:19:02.208Z,21.30
2023-05-08T04:21:50.060Z,22.45
2023-05-08T04:24:40.686Z,23.33
2023-05-08T04:27:26.684Z,21.65
2023-05-08T04:30:12.788Z,22.98
2023-05-08T04:32:59.702Z,20.90
2023-05-08T04:35:45.647Z,23.40
2023-05-08T04:38:30.768Z,21.65
2023-05-08T04:41:16.463Z,22.00
2023-05-08T04:44:03.756Z,21.77
2023-05-08T04:46:48.791Z,22.23
2023-05-08T04:49:34.188Z,24.17
2023-05-08T04:52:19.553Z,21.50
2023-05-08T04:55:05.884Z,23.23
2023-05-08T04:57:51.081Z,22.80
2023-05-08T05:00:36.176Z,21.60
2023-05-08T05:03:21.417Z,21.88
2023-05-08T05:06:06.770Z,23.63
2023-05-08T05:08:51.943Z,22.98
2023-05-08T05:11:37.315Z,22.08
2023-05-08T05:14:22.883Z,22.15
2023-05-08T05:17:08.230Z,22.88
2023-05-08T05:19:53.629Z,23.50
2023-05-08T05:22:38.904Z,22.58
2023-05-08T05:25:23.984Z,23.13
2023-05-08T05:28:09.142Z,21.77
2023-05-08T05:30:54.545Z,21.30
2023-05-08T05:33:40.176Z,21.17
2023-05-08T05:36:25.439Z,22.70
2023-05-08T05:39:10.739Z,21.80
2023-05-08T05:41:56.281Z,22.75
2023-05-08T05:44:41.655Z,21.75
2023-05-08T05:47:27.580Z,22.75
2023-05-08T05:50:12.947Z,22.90
2023-05-08T05:52:58.169Z,20.70
2023-05-08T05:55:43.564Z,22.08
2023-05-08T05:58:28.777Z,21.48
2023-05-08T06:01:14.215Z,22.58
2023-05-08T06:03:59.326Z,20.23
2023-05-08T06:06:44.534Z,24.02
2023-05-08T06:09:29.631Z,20.95
2023-05-08T06:12:15.916Z,24.20
2023-05-08T06:15:01.118Z,20.80
2023-05-08T06:17:46.603Z,22.23
2023-05-08T06:20:31.881Z,20.15
2023-05-08T06:23:17.454Z,20.73
2023-05-08T06:26:02.625Z,20.42
2023-05-08T06:28:48.037Z,20.05
2023-05-08T06:31:33.565Z,20.80
2023-05-08T06:34:18.801Z,21.90
2023-05-08T06:37:04.097Z,24.35
2023-05-08T06:39:57.285Z,20.33
2023-05-08T06:42:49.370Z,22.75
2023-05-08T06:45:34.862Z,22.23
2023-05-08T06:48:20.207Z,21.60
2023-05-08T06:51:05.509Z,19.00
2023-05-08T06:53:50.708Z,19.83
2023-05-08T06:56:38.061Z,24.27
2023-05-08T06:59:23.376Z,21.60
2023-05-08T07:02:09.250Z,18.80
2023-05-08T07:04:54.978Z,19.98
2023-05-08T07:07:40.265Z,20.65
2023-05-08T07:10:25.585Z,20.90
2023-05-08T07:13:10.923Z,20.63
2023-05-08T07:15:56.116Z,18.92
2023-05-08T07:18:41.670Z,20.70
2023-05-08T07:21:26.807Z,20.63
2023-05-08T07:24:12.174Z,20.75
2023-05-08T07:26:57.555Z,19.42
2023-05-08T07:29:43.512Z,19.55
2023-05-08T07:32:28.617Z,17.52
2023-05-08T07:35:13.818Z,17.27
2023-05-08T07:38:01.268Z,18.67
2023-05-08T07:40:46.296Z,37.33
2023-05-08T07:43:31.930Z,19.35
2023-05-08T07:46:20.744Z,16.83
2023-05-08T07:49:05.814Z,17.73
2023-05-08T07:51:50.522Z,19.92
2023-05-08T07:54:35.898Z,19.27
2023-05-08T07:57:21.153Z,18.27
2023-05-08T08:00:08.723Z,20.88
2023-05-08T08:02:54.143Z,17.17
2023-05-08T08:05:39.351Z,17.38
2023-05-08T08:08:24.744Z,16.23
2023-05-08T08:11:09.690Z,18.13
2023-05-08T08:13:54.997Z,18.85
2023-05-08T08:16:40.459Z,18.30
2023-05-08T08:19:25.946Z,18.55
2023-05-08T08:22:11.059Z,20.33
2023-05-08T08:24:56.653Z,17.48
2023-05-08T08:27:42.047Z,17.58
2023-05-08T08:30:27.688Z,20.90
2023-05-08T08:33:12.774Z,17.35
2023-05-08T08:35:57.948Z,17.52
2023-05-08T08:38:43.445Z,17.63
2023-05-08T08:41:28.951Z,18.98
2023-05-08T08:44:14.563Z,17.83
2023-05-08T08:47:01.443Z,18.42
2023-05-08T08:49:51.212Z,17.25
2023-05-08T08:53:01.377Z,19.08
2023-05-08T08:55:49.737Z,17.48
2023-05-08T08:58:49.046Z,18.65
2023-05-08T09:01:35.848Z,21.10
2023-05-08T09:04:21.313Z,18.45
2023-05-08T09:07:07.091Z,17.40
2023-05-08T09:09:52.223Z,18.65
2023-05-08T09:12:37.732Z,18.70
2023-05-08T09:15:23.166Z,17.27
2023-05-08T09:18:08.574Z,17.27
2023-05-08T09:20:54.472Z,17.52
2023-05-08T09:23:59.013Z,18.10
2023-05-08T09:26:44.245Z,18.63
2023-05-08T09:29:29.837Z,18.10
2023-05-08T09:32:18.552Z,18.25
2023-05-08T09:35:05.556Z,18.65
2023-05-08T09:37:51.181Z,69.95
2023-05-08T09:40:36.423Z,19.60
2023-05-08T09:43:21.576Z,19.45
2023-05-08T09:46:27.060Z,17.25
2023-05-08T09:49:17.780Z,18.15
2023-05-08T09:52:03.461Z,18.98
2023-05-08T09:54:56.821Z,20.80
2023-05-08T09:57:52.413Z,27.70
2023-05-08T10:00:39.294Z,19.60
2023-05-08T10:03:45.543Z,17.88
2023-05-08T10:06:31.297Z,16.98
2023-05-08T10:09:16.629Z,18.27
2023-05-08T10:12:02.125Z,17.15
2023-05-08T10:14:47.290Z,17.63
2023-05-08T10:17:45.515Z,20.60
2023-05-08T10:20:32.962Z,17.88
2023-05-08T10:23:20.425Z,20.90
2023-05-08T10:26:12.170Z,18.63
2023-05-08T10:28:59.421Z,18.15
2023-05-08T10:31:46.547Z,18.33
2023-05-08T10:34:32.219Z,18.98
2023-05-08T10:37:17.305Z,18.45
2023-05-08T10:40:03.635Z,17.00
2023-05-08T10:42:51.874Z,18.08
2023-05-08T10:45:38.137Z,18.75
2023-05-08T10:48:51.293Z,19.30
2023-05-08T10:55:32.857Z,21.70
2023-05-08T10:58:23.671Z,18.88
2023-05-08T11:01:08.669Z,19.10
2023-05-08T11:03:54.063Z,18.70
2023-05-08T11:06:48.072Z,18.15
2023-05-08T11:09:42.332Z,19.48
2023-05-08T11:12:29.342Z,17.30
2023-05-08T11:15:14.758Z,16.73
2023-05-08T11:18:04.491Z,17.05
2023-05-08T11:20:56.955Z,18.70
2023-05-08T11:23:42.084Z,18.33
2023-05-08T11:26:39.893Z,18.80
2023-05-08T11:29:25.450Z,19.75
2023-05-08T11:32:11.670Z,19.90
2023-05-08T11:34:57.327Z,19.42
2023-05-08T11:38:16.984Z,20.52
2023-05-08T11:41:21.679Z,21.08
2023-05-08T11:44:20.881Z,18.88
2023-05-08T11:47:07.194Z,19.33
2023-05-08T11:49:55.153Z,22.20
2023-05-08T11:52:42.477Z,18.15
2023-05-08T11:55:27.631Z,19.92
2023-05-08T11:58:17.740Z,18.65
2023-05-08T12:01:06.130Z,20.05
2023-05-08T12:04:04.483Z,17.92
2023-05-08T12:06:49.720Z,19.40
2023-05-08T12:09:35.085Z,19.30
2023-05-08T12:12:20.460Z,19.38
2023-05-08T12:15:08.216Z,19.60
2023-05-08T12:18:02.409Z,18.33
2023-05-08T12:20:59.008Z,19.83
2023-05-08T12:23:44.809Z,17.63
2023-05-08T12:26:29.784Z,22.48
2023-05-08T12:29:18.791Z,18.38
2023-05-08T12:32:05.200Z,19.20
2023-05-08T12:34:52.420Z,20.83
2023-05-08T12:37:40.686Z,21.23
2023-05-08T12:40:39.867Z,17.52
2023-05-08T12:43:33.678Z,19.38
2023-05-08T12:49:08.561Z,17.83
2023-05-08T12:52:04.973Z,18.25
2023-05-08T12:54:49.839Z,20.58
2023-05-08T12:57:36.803Z,19.13
2023-05-08T13:00:22.100Z,19.95
2023-05-08T13:03:08.985Z,17.73
2023-05-08T13:05:58.747Z,19.35
2023-05-08T13:08:44.151Z,18.17
2023-05-08T13:11:32.732Z,18.98
2023-05-08T13:14:18.111Z,19.23
2023-05-08T13:17:03.516Z,19.27
2023-05-08T13:19:48.814Z,21.13
2023-05-08T13:22:33.656Z,17.63
2023-05-08T13:25:18.961Z,16.98
2023-05-08T13:28:09.408Z,25.65
2023-05-08T13:30:54.595Z,19.52
2023-05-08T13:33:39.456Z,16.63
2023-05-08T13:36:24.973Z,17.70
2023-05-08T13:39:10.689Z,17.13
2023-05-08T13:41:55.993Z,16.40
2023-05-08T13:44:40.844Z,18.25
2023-05-08T13:47:26.137Z,19.45
2023-05-08T13:50:12.914Z,18.35
2023-05-08T13:52:59.962Z,17.75
2023-05-08T13:55:52.371Z,17.98
2023-05-08T13:58:37.494Z,16.52
2023-05-08T14:01:27.166Z,15.85
2023-05-08T14:04:12.619Z,16.63
2023-05-08T14:06:58.113Z,15.70
2023-05-08T14:09:43.659Z,20.45
2023-05-08T14:12:31.198Z,17.95
2023-05-08T14:15:16.668Z,18.95
2023-05-08T14:18:01.840Z,19.98
2023-05-08T14:20:56.422Z,17.58
2023-05-08T14:23:42.169Z,20.98
2023-05-08T14:26:27.364Z,18.80
2023-05-08T14:29:12.963Z,21.75
2023-05-08T14:31:58.561Z,17.92
2023-05-08T14:34:43.791Z,17.05
2023-05-08T14:37:28.613Z,17.08
2023-05-08T14:40:14.088Z,16.90
2023-05-08T14:42:59.205Z,14.80
2023-05-08T14:45:44.275Z,15.38
2023-05-08T14:48:29.592Z,19.70
2023-05-08T14:51:14.571Z,29.50
2023-05-08T14:54:00.274Z,24.33
2023-05-08T15:02:38.780Z,20.52
2023-05-08T15:05:24.344Z,18.55
2023-05-08T15:08:10.613Z,19.98
2023-05-08T15:10:56.003Z,16.95
2023-05-08T15:13:40.972Z,18.65
2023-05-08T15:16:26.025Z,16.83
2023-05-08T15:19:11.396Z,19.40
2023-05-08T15:21:56.636Z,22.02
2023-05-08T15:24:41.537Z,22.63
2023-05-08T15:27:26.919Z,18.83
2023-05-08T15:30:13.008Z,21.00
2023-05-08T15:32:58.517Z,18.80
2023-05-08T15:35:43.710Z,22.13
2023-05-08T15:38:28.708Z,22.42
2023-05-08T15:41:15.383Z,24.25
2023-05-08T15:44:01.142Z,23.08
2023-05-08T15:46:46.629Z,24.00
2023-05-08T15:49:31.601Z,22.33
2023-05-08T15:52:17.231Z,24.52
2023-05-08T15:55:02.657Z,22.98
2023-05-08T15:57:47.740Z,23.33
2023-05-08T16:00:44.019Z,29.63
2023-05-08T16:03:31.062Z,21.10
2023-05-08T16:06:16.206Z,21.70
2023-05-08T16:09:01.210Z,22.23
2023-05-08T16:11:46.520Z,24.30
2023-05-08T16:14:31.486Z,23.88
2023-05-08T16:17:16.395Z,24.35
2023-05-08T16:20:01.837Z,20.67
2023-05-08T16:22:47.224Z,18.30
2023-05-08T16:25:32.235Z,19.27
2023-05-08T16:28:17.534Z,17.88
2023-05-08T16:31:08.946Z,16.63
2023-05-08T16:33:54.127Z,16.52
2023-05-08T16:36:39.528Z,18.50
2023-05-08T16:39:24.655Z,21.42
2023-05-08T16:42:09.481Z,16.05
2023-05-08T16:44:54.942Z,15.27
2023-05-08T16:47:39.908Z,15.48
2023-05-08T16:50:25.400Z,15.48
2023-05-08T16:53:10.871Z,15.00
2023-05-08T16:55:55.768Z,13.80
2023-05-08T16:58:41.275Z,15.75
2023-05-08T17:01:26.238Z,17.85
2023-05-08T17:04:11.478Z,17.15
2023-05-08T17:06:56.857Z,16.05
2023-05-08T17:09:42.069Z,15.60
2023-05-08T17:12:27.325Z,16.63
2023-05-08T17:15:12.894Z,16.30
2023-05-08T17:17:58.195Z,16.10
2023-05-08T17:20:43.400Z,16.55
2023-05-08T17:23:28.758Z,15.90
2023-05-08T17:26:14.189Z,15.48
2023-05-08T17:28:59.602Z,17.27
2023-05-08T17:31:44.623Z,20.13
2023-05-08T17:34:29.679Z,16.67
2023-05-08T17:37:15.042Z,18.58
2023-05-08T17:40:00.340Z,14.90
2023-05-08T17:42:45.817Z,17.48
2023-05-08T17:45:31.853Z,15.93
2023-05-08T17:48:16.890Z,18.50
2023-05-08T17:51:02.531Z,17.73
2023-05-08T17:53:47.487Z,17.08
2023-05-08T17:56:34.213Z,17.50
2023-05-08T17:59:19.807Z,17.38
2023-05-08T18:02:05.194Z,19.55
2023-05-08T18:04:50.695Z,21.25
2023-05-08T18:07:36.060Z,20.92
2023-05-08T18:10:21.204Z,29.25
2023-05-08T18:13:06.371Z,41.80
2023-05-08T18:15:51.694Z,36.25
2023-05-08T18:18:38.134Z,23.40
2023-05-08T18:21:23.030Z,24.40
2023-05-08T18:24:08.494Z,27.60
2023-05-08T18:26:53.722Z,27.48
2023-05-08T18:29:39.215Z,29.50
2023-05-08T18:32:24.665Z,32.80
2023-05-08T18:35:16.187Z,31.40
2023-05-08T18:38:01.455Z,29.95
2023-05-08T18:40:46.548Z,29.88
2023-05-08T18:43:31.932Z,30.48
2023-05-08T18:46:16.898Z,30.35
2023-05-08T18:49:02.395Z,28.70
2023-05-08T18:51:49.185Z,29.40
2023-05-08T18:54:38.446Z,28.50
2023-05-08T18:57:26.529Z,29.35
2023-05-08T19:00:11.861Z,32.38
2023-05-08T19:02:57.226Z,30.42
2023-05-08T19:05:43.639Z,34.35
2023-05-08T19:08:29.006Z,31.75
2023-05-08T19:11:14.116Z,33.67
2023-05-08T19:13:59.172Z,31.92
2023-05-08T19:16:44.029Z,33.55
2023-05-08T19:19:29.011Z,34.15
2023-05-08T19:22:14.475Z,37.40
2023-05-08T19:24:59.975Z,34.15
2023-05-08T19:27:45.435Z,32.00
2023-05-08T19:30:30.612Z,32.38
2023-05-08T19:33:15.709Z,32.20
2023-05-08T19:36:01.018Z,31.08
2023-05-08T19:38:45.986Z,30.92
2023-05-08T19:41:31.400Z,32.33
2023-05-08T19:44:16.365Z,35.70
2023-05-08T19:47:03.753Z,34.90
2023-05-08T19:49:49.436Z,37.65
2023-05-08T19:52:34.547Z,38.10
2023-05-08T19:55:19.877Z,35.55
2023-05-08T19:58:05.040Z,38.88
2023-05-08T20:00:51.961Z,36.17
2023-05-08T20:03:37.464Z,38.85
2023-05-08T20:06:22.748Z,38.38
2023-05-08T20:09:08.383Z,44.10
2023-05-08T20:11:53.713Z,39.70
2023-05-08T20:14:38.653Z,42.13
2023-05-08T20:17:23.696Z,43.58
2023-05-08T20:20:11.884Z,40.95
2023-05-08T20:22:57.400Z,51.35
2023-05-08T20:25:44.282Z,46.13
2023-05-08T20:28:29.400Z,41.67
2023-05-08T20:31:17.944Z,47.78
2023-05-08T20:34:03.397Z,40.70
2023-05-08T20:36:48.374Z,38.50
2023-05-08T20:39:33.874Z,40.70
2023-05-08T20:42:19.382Z,41.40
2023-05-08T20:45:05.211Z,46.20
2023-05-08T20:47:50.531Z,48.63
2023-05-08T20:50:35.680Z,42.38
2023-05-08T20:53:20.529Z,47.15
2023-05-08T20:56:05.727Z,49.97
2023-05-08T20:58:50.487Z,56.70
2023-05-08T21:01:35.394Z,44.50
2023-05-08T21:04:20.763Z,40.85
2023-05-08T21:07:06.482Z,31.08
2023-05-08T21:09:51.604Z,32.97
2023-05-08T21:12:36.631Z,29.90
2023-05-08T21:15:22.019Z,27.27
2023-05-08T21:18:07.288Z,27.40
2023-05-08T21:20:52.455Z,27.25
2023-05-08T21:23:37.265Z,31.02
2023-05-08T21:26:22.186Z,27.55
2023-05-08T21:29:07.510Z,23.95
2023-05-08T21:31:52.927Z,25.63
2023-05-08T21:34:38.206Z,26.20
2023-05-08T21:37:23.778Z,23.02
2023-05-08T21:40:09.024Z,23.25
2023-05-08T21:42:54.179Z,21.33
2023-05-08T21:45:39.106Z,22.77
2023-05-08T21:48:24.468Z,22.75
2023-05-08T21:51:10.238Z,22.63
2023-05-08T21:53:55.483Z,22.95
2023-05-08T21:56:40.577Z,24.65
2023-05-08T21:59:26.083Z,22.90
2023-05-08T22:02:11.448Z,21.25
2023-05-08T22:04:56.921Z,21.60
2023-05-08T22:07:42.208Z,19.60
2023-05-08T22:10:27.149Z,18.85
2023-05-08T22:13:13.050Z,20.05
2023-05-08T22:15:57.928Z,20.80
2023-05-08T22:18:43.440Z,19.08
2023-05-08T22:21:28.764Z,18.90
2023-05-08T22:24:14.316Z,19.65
2023-05-08T22:26:59.311Z,19.48
2023-05-08T22:29:44.503Z,18.80
2023-05-08T22:32:30.359Z,21.33
2023-05-08T22:35:16.016Z,18.30
2023-05-08T22:38:01.331Z,21.50
2023-05-08T22:40:46.691Z,19.13
2023-05-08T22:43:32.769Z,18.20
2023-05-08T22:46:18.699Z,19.38
2023-05-08T22:49:03.954Z,19.27
2023-05-08T22:51:50.411Z,18.55
2023-05-08T22:54:35.808Z,18.27
2023-05-08T22:57:20.961Z,18.63
2023-05-08T23:00:07.255Z,18.02
2023-05-08T23:02:52.405Z,20.42
2023-05-08T23:05:37.608Z,17.83
2023-05-08T23:08:22.648Z,18.13
2023-05-08T23:11:08.154Z,18.67
2023-05-08T23:13:53.566Z,17.95
2023-05-08T23:16:38.995Z,19.52
2023-05-08T23:19:24.472Z,18.38
2023-05-08T23:22:09.837Z,19.80
2023-05-08T23:24:55.003Z,19.38
2023-05-08T23:27:40.777Z,20.67
2023-05-08T23:30:26.313Z,17.15
2023-05-08T23:33:11.806Z,18.42
2023-05-08T23:35:58.604Z,21.20
2023-05-08T23:38:43.991Z,18.63
2023-05-08T23:41:29.412Z,18.02
2023-05-08T23:44:15.347Z,18.23
2023-05-08T23:47:00.785Z,19.60
2023-05-08T23:49:46.858Z,21.67
2023-05-08T23:52:31.987Z,19.63
2023-05-08T23:55:17.371Z,21.05
2023-05-08T23:58:02.704Z,19.50
